sensor_id;sensor_type;location;lat;lon;timestamp;temperature;humidity
11764;DHT22;5939;56.522;14.950;2023-07-13T00:01:37;17.70;99.90
11764;DHT22;5939;56.522;14.950;2023-07-13T00:04:04;17.70;99.90
11764;DHT22;5939;56.522;14.950;2023-07-13T00:06:29;17.70;99.90
11764;DHT22;5939;56.522;14.950;2023-07-13T00:08:59;17.70;99.90
11764;DHT22;5939;56.522;14.950;2023-07-13T00:11:25;17.70;99.90
11764;DHT22;5939;56.522;14.950;2023-07-13T00:13:51;17.70;99.90
11764;DHT22;5939;56.522;14.950;2023-07-13T00:16:16;17.60;99.90
11764;DHT22;5939;56.522;14.950;2023-07-13T00:18:44;17.60;99.90
11764;DHT22;5939;56.522;14.950;2023-07-13T00:21:10;17.60;99.90
11764;DHT22;5939;56.522;14.950;2023-07-13T00:23:38;17.60;99.90
11764;DHT22;5939;56.522;14.950;2023-07-13T00:26:06;17.60;99.90
11764;DHT22;5939;56.522;14.950;2023-07-13T00:28:33;17.60;99.90
11764;DHT22;5939;56.522;14.950;2023-07-13T00:30:59;17.60;99.90
11764;DHT22;5939;56.522;14.950;2023-07-13T00:33:26;17.50;99.90
11764;DHT22;5939;56.522;14.950;2023-07-13T00:35:54;17.50;99.90
11764;DHT22;5939;56.522;14.950;2023-07-13T00:38:20;17.50;99.90
11764;DHT22;5939;56.522;14.950;2023-07-13T00:40:46;17.50;99.90
11764;DHT22;5939;56.522;14.950;2023-07-13T00:43:15;17.50;99.90
11764;DHT22;5939;56.522;14.950;2023-07-13T00:48:31;17.50;99.90
11764;DHT22;5939;56.522;14.950;2023-07-13T00:50:58;17.40;99.90
11764;DHT22;5939;56.522;14.950;2023-07-13T00:53:28;17.40;99.90
11764;DHT22;5939;56.522;14.950;2023-07-13T00:55:56;17.40;99.90
11764;DHT22;5939;56.522;14.950;2023-07-13T00:58:23;17.40;99.90
11764;DHT22;5939;56.522;14.950;2023-07-13T01:00:51;17.40;99.90
11764;DHT22;5939;56.522;14.950;2023-07-13T01:03:18;17.40;99.90
11764;DHT22;5939;56.522;14.950;2023-07-13T01:05:43;17.40;99.90
11764;DHT22;5939;56.522;14.950;2023-07-13T01:08:11;17.30;99.90
11764;DHT22;5939;56.522;14.950;2023-07-13T01:10:37;17.30;99.90
11764;DHT22;5939;56.522;14.950;2023-07-13T01:13:10;17.30;99.90
11764;DHT22;5939;56.522;14.950;2023-07-13T01:15:44;17.30;99.90
11764;DHT22;5939;56.522;14.950;2023-07-13T01:18:12;17.30;99.90
11764;DHT22;5939;56.522;14.950;2023-07-13T01:20:39;17.30;99.90
11764;DHT22;5939;56.522;14.950;2023-07-13T01:23:10;17.20;99.90
11764;DHT22;5939;56.522;14.950;2023-07-13T01:25:37;17.20;99.90
11764;DHT22;5939;56.522;14.950;2023-07-13T01:28:05;17.20;99.90
11764;DHT22;5939;56.522;14.950;2023-07-13T01:30:31;17.20;99.90
11764;DHT22;5939;56.522;14.950;2023-07-13T01:32:57;17.20;99.90
11764;DHT22;5939;56.522;14.950;2023-07-13T01:35:24;17.20;99.90
11764;DHT22;5939;56.522;14.950;2023-07-13T01:37:51;17.10;99.90
11764;DHT22;5939;56.522;14.950;2023-07-13T01:40:17;17.10;99.90
11764;DHT22;5939;56.522;14.950;2023-07-13T01:42:43;17.10;99.90
11764;DHT22;5939;56.522;14.950;2023-07-13T01:45:09;17.10;99.90
11764;DHT22;5939;56.522;14.950;2023-07-13T01:47:34;17.10;99.90
11764;DHT22;5939;56.522;14.950;2023-07-13T01:50:00;17.10;99.90
11764;DHT22;5939;56.522;14.950;2023-07-13T01:52:26;17.10;99.90
11764;DHT22;5939;56.522;14.950;2023-07-13T01:54:51;17.00;99.90
11764;DHT22;5939;56.522;14.950;2023-07-13T01:57:17;17.00;99.90
11764;DHT22;5939;56.522;14.950;2023-07-13T01:59:43;17.00;99.90
11764;DHT22;5939;56.522;14.950;2023-07-13T02:02:08;17.00;99.90
11764;DHT22;5939;56.522;14.950;2023-07-13T02:04:34;17.00;99.90
11764;DHT22;5939;56.522;14.950;2023-07-13T02:07:00;17.00;99.90
11764;DHT22;5939;56.522;14.950;2023-07-13T02:09:25;17.00;99.90
11764;DHT22;5939;56.522;14.950;2023-07-13T02:11:51;16.90;99.90
11764;DHT22;5939;56.522;14.950;2023-07-13T02:14:16;16.90;99.90
11764;DHT22;5939;56.522;14.950;2023-07-13T02:16:42;16.90;99.90
11764;DHT22;5939;56.522;14.950;2023-07-13T02:19:08;16.90;99.90
11764;DHT22;5939;56.522;14.950;2023-07-13T02:21:34;16.90;99.90
11764;DHT22;5939;56.522;14.950;2023-07-13T02:24:00;16.90;99.90
11764;DHT22;5939;56.522;14.950;2023-07-13T02:26:26;16.90;99.90
11764;DHT22;5939;56.522;14.950;2023-07-13T02:28:52;16.80;99.90
11764;DHT22;5939;56.522;14.950;2023-07-13T02:31:18;16.80;99.90
11764;DHT22;5939;56.522;14.950;2023-07-13T02:33:43;16.80;99.90
11764;DHT22;5939;56.522;14.950;2023-07-13T02:36:09;16.80;99.90
11764;DHT22;5939;56.522;14.950;2023-07-13T02:38:35;16.80;99.90
11764;DHT22;5939;56.522;14.950;2023-07-13T02:41:05;16.80;99.90
11764;DHT22;5939;56.522;14.950;2023-07-13T02:43:32;16.70;99.90
11764;DHT22;5939;56.522;14.950;2023-07-13T02:45:59;16.70;99.90
11764;DHT22;5939;56.522;14.950;2023-07-13T02:48:29;16.70;99.90
11764;DHT22;5939;56.522;14.950;2023-07-13T02:50:55;16.70;99.90
11764;DHT22;5939;56.522;14.950;2023-07-13T02:53:21;16.70;99.90
11764;DHT22;5939;56.522;14.950;2023-07-13T02:55:47;16.70;99.90
11764;DHT22;5939;56.522;14.950;2023-07-13T02:58:13;16.70;99.90
11764;DHT22;5939;56.522;14.950;2023-07-13T03:00:43;16.70;99.90
11764;DHT22;5939;56.522;14.950;2023-07-13T03:03:09;16.70;99.90
11764;DHT22;5939;56.522;14.950;2023-07-13T03:05:37;16.60;99.90
11764;DHT22;5939;56.522;14.950;2023-07-13T03:08:03;16.60;99.90
11764;DHT22;5939;56.522;14.950;2023-07-13T03:10:29;16.60;99.90
11764;DHT22;5939;56.522;14.950;2023-07-13T03:12:55;16.60;99.90
11764;DHT22;5939;56.522;14.950;2023-07-13T03:15:20;16.60;99.90
11764;DHT22;5939;56.522;14.950;2023-07-13T03:17:46;16.60;99.90
11764;DHT22;5939;56.522;14.950;2023-07-13T03:20:12;16.60;99.90
11764;DHT22;5939;56.522;14.950;2023-07-13T03:22:37;16.60;99.90
11764;DHT22;5939;56.522;14.950;2023-07-13T03:25:04;16.60;99.90
11764;DHT22;5939;56.522;14.950;2023-07-13T03:27:30;16.60;99.90
11764;DHT22;5939;56.522;14.950;2023-07-13T03:29:55;16.60;99.90
11764;DHT22;5939;56.522;14.950;2023-07-13T03:32:21;16.60;99.90
11764;DHT22;5939;56.522;14.950;2023-07-13T03:34:47;16.60;99.90
11764;DHT22;5939;56.522;14.950;2023-07-13T03:37:12;16.50;99.90
11764;DHT22;5939;56.522;14.950;2023-07-13T03:39:38;16.50;99.90
11764;DHT22;5939;56.522;14.950;2023-07-13T03:42:04;16.50;99.90
11764;DHT22;5939;56.522;14.950;2023-07-13T03:44:30;16.50;99.90
11764;DHT22;5939;56.522;14.950;2023-07-13T03:46:55;16.50;99.90
11764;DHT22;5939;56.522;14.950;2023-07-13T03:49:21;16.50;99.90
11764;DHT22;5939;56.522;14.950;2023-07-13T03:51:46;16.50;99.90
11764;DHT22;5939;56.522;14.950;2023-07-13T03:54:12;16.50;99.90
11764;DHT22;5939;56.522;14.950;2023-07-13T03:56:38;16.50;99.90
11764;DHT22;5939;56.522;14.950;2023-07-13T03:59:03;16.50;99.90
11764;DHT22;5939;56.522;14.950;2023-07-13T04:01:29;16.50;99.90
11764;DHT22;5939;56.522;14.950;2023-07-13T04:03:55;16.50;99.90
11764;DHT22;5939;56.522;14.950;2023-07-13T04:06:27;16.50;99.90
11764;DHT22;5939;56.522;14.950;2023-07-13T04:08:59;16.50;99.90
11764;DHT22;5939;56.522;14.950;2023-07-13T04:11:29;16.50;99.90
11764;DHT22;5939;56.522;14.950;2023-07-13T04:13:56;16.50;99.90
11764;DHT22;5939;56.522;14.950;2023-07-13T04:16:22;16.50;99.90
11764;DHT22;5939;56.522;14.950;2023-07-13T04:18:48;16.50;99.90
11764;DHT22;5939;56.522;14.950;2023-07-13T04:21:15;16.50;99.90
11764;DHT22;5939;56.522;14.950;2023-07-13T04:23:41;16.50;99.90
11764;DHT22;5939;56.522;14.950;2023-07-13T04:26:07;16.50;99.90
11764;DHT22;5939;56.522;14.950;2023-07-13T04:28:33;16.50;99.90
11764;DHT22;5939;56.522;14.950;2023-07-13T04:30:59;16.50;99.90
11764;DHT22;5939;56.522;14.950;2023-07-13T04:33:26;16.50;99.90
11764;DHT22;5939;56.522;14.950;2023-07-13T04:35:54;16.50;99.90
11764;DHT22;5939;56.522;14.950;2023-07-13T04:38:22;16.50;99.90
11764;DHT22;5939;56.522;14.950;2023-07-13T04:40:50;16.50;99.90
11764;DHT22;5939;56.522;14.950;2023-07-13T04:43:16;16.50;99.90
11764;DHT22;5939;56.522;14.950;2023-07-13T04:45:42;16.50;99.90
11764;DHT22;5939;56.522;14.950;2023-07-13T04:48:07;16.50;99.90
11764;DHT22;5939;56.522;14.950;2023-07-13T04:50:36;16.50;99.90
11764;DHT22;5939;56.522;14.950;2023-07-13T04:53:02;16.50;99.90
11764;DHT22;5939;56.522;14.950;2023-07-13T04:55:30;16.60;99.90
11764;DHT22;5939;56.522;14.950;2023-07-13T04:57:56;16.60;99.90
11764;DHT22;5939;56.522;14.950;2023-07-13T05:00:24;16.60;99.90
11764;DHT22;5939;56.522;14.950;2023-07-13T05:02:50;16.60;99.90
11764;DHT22;5939;56.522;14.950;2023-07-13T05:05:16;16.60;99.90
11764;DHT22;5939;56.522;14.950;2023-07-13T05:07:42;16.60;99.90
11764;DHT22;5939;56.522;14.950;2023-07-13T05:10:09;16.60;99.90
11764;DHT22;5939;56.522;14.950;2023-07-13T05:12:35;16.60;99.90
11764;DHT22;5939;56.522;14.950;2023-07-13T05:15:01;16.60;99.90
11764;DHT22;5939;56.522;14.950;2023-07-13T05:17:27;17.10;99.90
11764;DHT22;5939;56.522;14.950;2023-07-13T05:19:53;16.70;99.90
11764;DHT22;5939;56.522;14.950;2023-07-13T05:22:18;16.70;99.90
11764;DHT22;5939;56.522;14.950;2023-07-13T05:24:44;16.70;99.90
11764;DHT22;5939;56.522;14.950;2023-07-13T05:27:09;16.80;99.90
11764;DHT22;5939;56.522;14.950;2023-07-13T05:29:35;16.80;99.90
11764;DHT22;5939;56.522;14.950;2023-07-13T05:32:01;16.80;99.90
11764;DHT22;5939;56.522;14.950;2023-07-13T05:34:26;16.90;99.90
11764;DHT22;5939;56.522;14.950;2023-07-13T05:36:52;16.90;99.90
11764;DHT22;5939;56.522;14.950;2023-07-13T05:39:18;17.00;99.90
11764;DHT22;5939;56.522;14.950;2023-07-13T05:41:44;17.00;99.90
11764;DHT22;5939;56.522;14.950;2023-07-13T05:44:10;17.00;99.90
11764;DHT22;5939;56.522;14.950;2023-07-13T05:46:35;17.20;99.90
11764;DHT22;5939;56.522;14.950;2023-07-13T05:49:01;17.20;99.90
11764;DHT22;5939;56.522;14.950;2023-07-13T05:51:27;17.30;99.90
11764;DHT22;5939;56.522;14.950;2023-07-13T05:53:52;17.40;99.90
11764;DHT22;5939;56.522;14.950;2023-07-13T05:56:18;17.40;99.90
11764;DHT22;5939;56.522;14.950;2023-07-13T05:58:43;17.50;99.90
11764;DHT22;5939;56.522;14.950;2023-07-13T06:01:12;17.60;99.90
11764;DHT22;5939;56.522;14.950;2023-07-13T06:03:38;17.60;99.90
11764;DHT22;5939;56.522;14.950;2023-07-13T06:06:08;17.70;99.90
11764;DHT22;5939;56.522;14.950;2023-07-13T06:08:34;17.80;99.90
11764;DHT22;5939;56.522;14.950;2023-07-13T06:11:10;17.90;99.90
11764;DHT22;5939;56.522;14.950;2023-07-13T06:13:37;18.00;99.90
11764;DHT22;5939;56.522;14.950;2023-07-13T06:16:03;18.00;99.90
11764;DHT22;5939;56.522;14.950;2023-07-13T06:18:34;18.10;99.90
11764;DHT22;5939;56.522;14.950;2023-07-13T06:21:00;18.20;99.90
11764;DHT22;5939;56.522;14.950;2023-07-13T06:23:25;18.30;99.90
11764;DHT22;5939;56.522;14.950;2023-07-13T06:25:51;18.40;99.90
11764;DHT22;5939;56.522;14.950;2023-07-13T06:28:17;18.40;99.90
11764;DHT22;5939;56.522;14.950;2023-07-13T06:30:43;18.50;99.90
11764;DHT22;5939;56.522;14.950;2023-07-13T06:33:08;18.60;99.90
11764;DHT22;5939;56.522;14.950;2023-07-13T06:35:34;18.60;99.90
11764;DHT22;5939;56.522;14.950;2023-07-13T06:38:00;18.70;99.90
11764;DHT22;5939;56.522;14.950;2023-07-13T06:40:25;18.80;99.90
11764;DHT22;5939;56.522;14.950;2023-07-13T06:42:53;18.90;99.90
11764;DHT22;5939;56.522;14.950;2023-07-13T06:45:19;19.00;99.90
11764;DHT22;5939;56.522;14.950;2023-07-13T06:47:44;19.00;99.90
11764;DHT22;5939;56.522;14.950;2023-07-13T06:50:10;19.20;99.90
11764;DHT22;5939;56.522;14.950;2023-07-13T06:52:36;19.20;99.90
11764;DHT22;5939;56.522;14.950;2023-07-13T06:55:01;19.30;99.90
11764;DHT22;5939;56.522;14.950;2023-07-13T06:57:27;19.40;99.90
11764;DHT22;5939;56.522;14.950;2023-07-13T06:59:53;19.40;99.90
11764;DHT22;5939;56.522;14.950;2023-07-13T07:02:18;19.60;99.90
11764;DHT22;5939;56.522;14.950;2023-07-13T07:04:44;19.60;99.90
11764;DHT22;5939;56.522;14.950;2023-07-13T07:07:09;19.70;99.90
11764;DHT22;5939;56.522;14.950;2023-07-13T07:09:35;19.70;99.90
11764;DHT22;5939;56.522;14.950;2023-07-13T07:12:01;19.80;99.90
11764;DHT22;5939;56.522;14.950;2023-07-13T07:14:27;19.80;99.90
11764;DHT22;5939;56.522;14.950;2023-07-13T07:16:53;19.90;99.90
11764;DHT22;5939;56.522;14.950;2023-07-13T07:19:18;19.90;99.90
11764;DHT22;5939;56.522;14.950;2023-07-13T07:21:44;19.90;99.90
11764;DHT22;5939;56.522;14.950;2023-07-13T07:24:10;19.90;99.90
11764;DHT22;5939;56.522;14.950;2023-07-13T07:26:35;19.90;99.90
11764;DHT22;5939;56.522;14.950;2023-07-13T07:29:01;19.90;99.90
11764;DHT22;5939;56.522;14.950;2023-07-13T07:31:27;19.90;99.90
11764;DHT22;5939;56.522;14.950;2023-07-13T07:33:52;19.90;99.90
11764;DHT22;5939;56.522;14.950;2023-07-13T07:36:18;20.00;99.90
11764;DHT22;5939;56.522;14.950;2023-07-13T07:38:44;20.00;99.90
11764;DHT22;5939;56.522;14.950;2023-07-13T07:41:10;20.00;99.90
11764;DHT22;5939;56.522;14.950;2023-07-13T07:43:36;20.00;99.90
11764;DHT22;5939;56.522;14.950;2023-07-13T07:46:02;20.10;99.90
11764;DHT22;5939;56.522;14.950;2023-07-13T07:48:27;20.10;99.90
11764;DHT22;5939;56.522;14.950;2023-07-13T07:50:53;20.10;99.90
11764;DHT22;5939;56.522;14.950;2023-07-13T07:53:19;20.10;99.90
11764;DHT22;5939;56.522;14.950;2023-07-13T07:55:44;20.10;99.90
11764;DHT22;5939;56.522;14.950;2023-07-13T07:58:10;20.10;99.90
11764;DHT22;5939;56.522;14.950;2023-07-13T08:00:36;20.10;99.90
11764;DHT22;5939;56.522;14.950;2023-07-13T08:03:02;20.10;99.90
11764;DHT22;5939;56.522;14.950;2023-07-13T08:05:28;20.00;99.90
11764;DHT22;5939;56.522;14.950;2023-07-13T08:07:54;20.10;99.90
11764;DHT22;5939;56.522;14.950;2023-07-13T08:10:20;20.10;99.90
11764;DHT22;5939;56.522;14.950;2023-07-13T08:12:46;20.10;99.90
11764;DHT22;5939;56.522;14.950;2023-07-13T08:15:14;20.10;99.90
11764;DHT22;5939;56.522;14.950;2023-07-13T08:17:40;20.20;99.90
11764;DHT22;5939;56.522;14.950;2023-07-13T08:20:07;20.20;99.90
11764;DHT22;5939;56.522;14.950;2023-07-13T08:22:34;20.20;99.90
11764;DHT22;5939;56.522;14.950;2023-07-13T08:25:01;20.20;99.90
11764;DHT22;5939;56.522;14.950;2023-07-13T08:27:28;20.20;99.90
11764;DHT22;5939;56.522;14.950;2023-07-13T08:29:54;20.20;99.90
11764;DHT22;5939;56.522;14.950;2023-07-13T08:32:21;20.30;99.90
11764;DHT22;5939;56.522;14.950;2023-07-13T08:34:48;20.30;99.90
11764;DHT22;5939;56.522;14.950;2023-07-13T08:37:14;20.40;99.90
11764;DHT22;5939;56.522;14.950;2023-07-13T08:39:40;20.40;99.90
11764;DHT22;5939;56.522;14.950;2023-07-13T08:42:34;20.40;99.90
11764;DHT22;5939;56.522;14.950;2023-07-13T08:48:10;20.50;99.90
11764;DHT22;5939;56.522;14.950;2023-07-13T08:50:53;20.50;99.90
11764;DHT22;5939;56.522;14.950;2023-07-13T08:53:19;20.60;99.90
11764;DHT22;5939;56.522;14.950;2023-07-13T08:55:57;20.70;99.90
11764;DHT22;5939;56.522;14.950;2023-07-13T08:58:25;20.70;99.90
11764;DHT22;5939;56.522;14.950;2023-07-13T09:03:51;20.90;99.90
11764;DHT22;5939;56.522;14.950;2023-07-13T09:06:23;21.00;99.90
11764;DHT22;5939;56.522;14.950;2023-07-13T09:08:59;21.10;99.90
11764;DHT22;5939;56.522;14.950;2023-07-13T09:16:51;21.40;99.90
11764;DHT22;5939;56.522;14.950;2023-07-13T09:19:27;21.50;99.90
11764;DHT22;5939;56.522;14.950;2023-07-13T09:21:55;21.50;99.90
11764;DHT22;5939;56.522;14.950;2023-07-13T09:27:17;21.60;99.90
11764;DHT22;5939;56.522;14.950;2023-07-13T09:32:38;21.70;99.90
11764;DHT22;5939;56.522;14.950;2023-07-13T09:35:11;21.80;99.90
11764;DHT22;5939;56.522;14.950;2023-07-13T09:37:38;21.80;99.90
11764;DHT22;5939;56.522;14.950;2023-07-13T09:40:13;21.90;99.90
11764;DHT22;5939;56.522;14.950;2023-07-13T09:42:42;21.90;99.90
11764;DHT22;5939;56.522;14.950;2023-07-13T09:45:08;21.90;99.90
11764;DHT22;5939;56.522;14.950;2023-07-13T09:47:39;21.90;99.90
11764;DHT22;5939;56.522;14.950;2023-07-13T09:50:09;21.90;99.90
11764;DHT22;5939;56.522;14.950;2023-07-13T09:52:47;21.90;99.90
11764;DHT22;5939;56.522;14.950;2023-07-13T09:55:33;21.90;99.90
11764;DHT22;5939;56.522;14.950;2023-07-13T09:58:04;21.90;99.90
11764;DHT22;5939;56.522;14.950;2023-07-13T10:00:31;21.90;99.90
11764;DHT22;5939;56.522;14.950;2023-07-13T10:03:19;21.90;99.90
11764;DHT22;5939;56.522;14.950;2023-07-13T10:05:47;21.90;99.90
11764;DHT22;5939;56.522;14.950;2023-07-13T10:08:29;21.90;99.90
11764;DHT22;5939;56.522;14.950;2023-07-13T10:11:01;21.90;99.90
11764;DHT22;5939;56.522;14.950;2023-07-13T10:13:32;22.00;99.90
11764;DHT22;5939;56.522;14.950;2023-07-13T10:16:00;22.00;99.90
11764;DHT22;5939;56.522;14.950;2023-07-13T10:18:28;22.10;99.90
11764;DHT22;5939;56.522;14.950;2023-07-13T10:21:11;22.20;99.90
11764;DHT22;5939;56.522;14.950;2023-07-13T10:23:39;22.20;99.90
11764;DHT22;5939;56.522;14.950;2023-07-13T10:26:07;22.30;99.90
11764;DHT22;5939;56.522;14.950;2023-07-13T10:28:38;22.30;99.90
11764;DHT22;5939;56.522;14.950;2023-07-13T10:31:10;22.40;99.90
11764;DHT22;5939;56.522;14.950;2023-07-13T10:33:37;22.40;99.90
11764;DHT22;5939;56.522;14.950;2023-07-13T10:36:15;22.50;99.90
11764;DHT22;5939;56.522;14.950;2023-07-13T10:38:43;22.60;99.90
11764;DHT22;5939;56.522;14.950;2023-07-13T10:41:18;22.60;99.90
11764;DHT22;5939;56.522;14.950;2023-07-13T10:43:53;22.70;99.90
11764;DHT22;5939;56.522;14.950;2023-07-13T10:46:23;22.80;99.90
11764;DHT22;5939;56.522;14.950;2023-07-13T10:48:53;22.80;99.90
11764;DHT22;5939;56.522;14.950;2023-07-13T10:51:21;22.80;99.90
11764;DHT22;5939;56.522;14.950;2023-07-13T10:54:10;22.90;99.90
11764;DHT22;5939;56.522;14.950;2023-07-13T10:56:33;22.90;99.90
11764;DHT22;5939;56.522;14.950;2023-07-13T10:59:28;22.90;99.90
11764;DHT22;5939;56.522;14.950;2023-07-13T11:02:09;22.90;99.90
11764;DHT22;5939;56.522;14.950;2023-07-13T11:05:13;22.90;99.90
11764;DHT22;5939;56.522;14.950;2023-07-13T11:08:14;22.90;99.90
11764;DHT22;5939;56.522;14.950;2023-07-13T11:10:53;22.90;99.90
11764;DHT22;5939;56.522;14.950;2023-07-13T11:13:37;22.90;99.90
11764;DHT22;5939;56.522;14.950;2023-07-13T11:18:48;22.90;99.90
11764;DHT22;5939;56.522;14.950;2023-07-13T11:21:16;22.90;99.90
11764;DHT22;5939;56.522;14.950;2023-07-13T11:23:44;22.80;99.90
11764;DHT22;5939;56.522;14.950;2023-07-13T11:31:39;22.70;99.90
11764;DHT22;5939;56.522;14.950;2023-07-13T11:34:12;22.60;99.90
11764;DHT22;5939;56.522;14.950;2023-07-13T11:36:42;22.60;99.90
11764;DHT22;5939;56.522;14.950;2023-07-13T11:39:21;22.50;99.90
11764;DHT22;5939;56.522;14.950;2023-07-13T11:41:57;22.40;99.90
11764;DHT22;5939;56.522;14.950;2023-07-13T11:44:25;22.40;99.90
11764;DHT22;5939;56.522;14.950;2023-07-13T11:46:53;22.30;99.90
11764;DHT22;5939;56.522;14.950;2023-07-13T11:49:22;22.20;99.90
11764;DHT22;5939;56.522;14.950;2023-07-13T11:51:48;22.20;99.90
11764;DHT22;5939;56.522;14.950;2023-07-13T11:56:52;22.10;99.90
11764;DHT22;5939;56.522;14.950;2023-07-13T11:59:19;22.00;99.90
11764;DHT22;5939;56.522;14.950;2023-07-13T12:01:51;22.00;99.90
11764;DHT22;5939;56.522;14.950;2023-07-13T12:07:02;21.90;99.90
11764;DHT22;5939;56.522;14.950;2023-07-13T12:09:28;21.80;99.90
11764;DHT22;5939;56.522;14.950;2023-07-13T12:11:57;21.80;99.90
11764;DHT22;5939;56.522;14.950;2023-07-13T12:14:25;21.80;99.90
11764;DHT22;5939;56.522;14.950;2023-07-13T12:16:52;21.70;99.90
11764;DHT22;5939;56.522;14.950;2023-07-13T12:19:21;21.70;99.90
11764;DHT22;5939;56.522;14.950;2023-07-13T12:21:47;21.70;99.90
11764;DHT22;5939;56.522;14.950;2023-07-13T12:24:18;21.60;99.90
11764;DHT22;5939;56.522;14.950;2023-07-13T12:26:44;21.60;99.90
11764;DHT22;5939;56.522;14.950;2023-07-13T12:29:17;21.50;99.90
11764;DHT22;5939;56.522;14.950;2023-07-13T12:31:48;21.50;99.90
11764;DHT22;5939;56.522;14.950;2023-07-13T12:34:19;21.50;99.90
11764;DHT22;5939;56.522;14.950;2023-07-13T12:36:54;21.50;99.90
11764;DHT22;5939;56.522;14.950;2023-07-13T12:39:33;21.40;99.90
11764;DHT22;5939;56.522;14.950;2023-07-13T12:42:22;21.40;99.90
11764;DHT22;5939;56.522;14.950;2023-07-13T12:45:09;21.40;99.90
11764;DHT22;5939;56.522;14.950;2023-07-13T12:47:42;21.40;99.90
11764;DHT22;5939;56.522;14.950;2023-07-13T12:50:38;21.40;99.90
11764;DHT22;5939;56.522;14.950;2023-07-13T12:53:13;21.50;99.90
11764;DHT22;5939;56.522;14.950;2023-07-13T12:56:00;21.50;99.90
11764;DHT22;5939;56.522;14.950;2023-07-13T12:58:38;21.50;99.90
11764;DHT22;5939;56.522;14.950;2023-07-13T13:01:05;21.60;99.90
11764;DHT22;5939;56.522;14.950;2023-07-13T13:03:31;21.60;99.90
11764;DHT22;5939;56.522;14.950;2023-07-13T13:06:04;21.60;99.90
11764;DHT22;5939;56.522;14.950;2023-07-13T13:08:34;21.60;99.90
11764;DHT22;5939;56.522;14.950;2023-07-13T13:11:03;21.60;99.90
11764;DHT22;5939;56.522;14.950;2023-07-13T13:13:30;21.70;99.90
11764;DHT22;5939;56.522;14.950;2023-07-13T13:15:55;21.70;99.90
11764;DHT22;5939;56.522;14.950;2023-07-13T13:18:23;21.70;99.90
11764;DHT22;5939;56.522;14.950;2023-07-13T13:20:52;21.70;99.90
11764;DHT22;5939;56.522;14.950;2023-07-13T13:23:20;21.70;99.90
11764;DHT22;5939;56.522;14.950;2023-07-13T13:25:49;21.70;99.90
11764;DHT22;5939;56.522;14.950;2023-07-13T13:28:21;21.70;99.90
11764;DHT22;5939;56.522;14.950;2023-07-13T13:30:49;21.70;99.90
11764;DHT22;5939;56.522;14.950;2023-07-13T13:33:18;21.70;99.90
11764;DHT22;5939;56.522;14.950;2023-07-13T13:35:44;21.70;99.90
11764;DHT22;5939;56.522;14.950;2023-07-13T13:38:15;21.70;99.90
11764;DHT22;5939;56.522;14.950;2023-07-13T13:40:43;21.70;99.90
11764;DHT22;5939;56.522;14.950;2023-07-13T13:43:14;21.70;99.90
11764;DHT22;5939;56.522;14.950;2023-07-13T13:45:41;21.60;99.90
11764;DHT22;5939;56.522;14.950;2023-07-13T13:48:20;21.70;99.90
11764;DHT22;5939;56.522;14.950;2023-07-13T13:50:47;21.60;99.90
11764;DHT22;5939;56.522;14.950;2023-07-13T13:53:13;21.60;99.90
11764;DHT22;5939;56.522;14.950;2023-07-13T13:55:39;21.60;99.90
11764;DHT22;5939;56.522;14.950;2023-07-13T13:58:10;21.50;99.90
11764;DHT22;5939;56.522;14.950;2023-07-13T14:00:39;21.50;99.90
11764;DHT22;5939;56.522;14.950;2023-07-13T14:03:05;21.50;99.90
11764;DHT22;5939;56.522;14.950;2023-07-13T14:05:32;21.40;99.90
11764;DHT22;5939;56.522;14.950;2023-07-13T14:07:58;21.40;99.90
11764;DHT22;5939;56.522;14.950;2023-07-13T14:10:25;21.40;99.90
11764;DHT22;5939;56.522;14.950;2023-07-13T14:12:53;21.30;99.90
11764;DHT22;5939;56.522;14.950;2023-07-13T14:15:27;21.30;99.90
11764;DHT22;5939;56.522;14.950;2023-07-13T14:17:54;21.30;99.90
11764;DHT22;5939;56.522;14.950;2023-07-13T14:20:22;21.30;99.90
11764;DHT22;5939;56.522;14.950;2023-07-13T14:22:49;21.20;99.90
11764;DHT22;5939;56.522;14.950;2023-07-13T14:25:16;21.20;99.90
11764;DHT22;5939;56.522;14.950;2023-07-13T14:27:44;21.20;99.90
11764;DHT22;5939;56.522;14.950;2023-07-13T14:30:19;21.20;99.90
11764;DHT22;5939;56.522;14.950;2023-07-13T14:32:46;21.10;99.90
11764;DHT22;5939;56.522;14.950;2023-07-13T14:35:14;21.10;99.90
11764;DHT22;5939;56.522;14.950;2023-07-13T14:37:40;21.10;99.90
11764;DHT22;5939;56.522;14.950;2023-07-13T14:42:38;21.00;99.90
11764;DHT22;5939;56.522;14.950;2023-07-13T14:45:04;21.00;99.90
11764;DHT22;5939;56.522;14.950;2023-07-13T14:47:30;21.00;99.90
11764;DHT22;5939;56.522;14.950;2023-07-13T14:49:56;20.90;99.90
11764;DHT22;5939;56.522;14.950;2023-07-13T14:52:23;20.90;99.90
11764;DHT22;5939;56.522;14.950;2023-07-13T14:54:51;20.90;99.90
11764;DHT22;5939;56.522;14.950;2023-07-13T14:57:18;20.90;99.90
11764;DHT22;5939;56.522;14.950;2023-07-13T14:59:45;20.90;99.90
11764;DHT22;5939;56.522;14.950;2023-07-13T15:04:42;20.80;99.90
11764;DHT22;5939;56.522;14.950;2023-07-13T15:07:12;20.80;99.90
11764;DHT22;5939;56.522;14.950;2023-07-13T15:09:41;20.80;99.90
11764;DHT22;5939;56.522;14.950;2023-07-13T15:12:07;20.80;99.90
11764;DHT22;5939;56.522;14.950;2023-07-13T15:14:33;20.80;99.90
11764;DHT22;5939;56.522;14.950;2023-07-13T15:16:59;20.70;99.90
11764;DHT22;5939;56.522;14.950;2023-07-13T15:19:25;20.70;99.90
11764;DHT22;5939;56.522;14.950;2023-07-13T15:21:54;20.70;99.90
11764;DHT22;5939;56.522;14.950;2023-07-13T15:24:23;20.70;99.90
11764;DHT22;5939;56.522;14.950;2023-07-13T15:26:49;20.70;99.90
11764;DHT22;5939;56.522;14.950;2023-07-13T15:29:17;20.60;99.90
11764;DHT22;5939;56.522;14.950;2023-07-13T15:31:43;20.60;99.90
11764;DHT22;5939;56.522;14.950;2023-07-13T15:34:16;20.60;99.90
11764;DHT22;5939;56.522;14.950;2023-07-13T15:36:42;20.60;99.90
11764;DHT22;5939;56.522;14.950;2023-07-13T15:39:14;20.50;99.90
11764;DHT22;5939;56.522;14.950;2023-07-13T15:41:41;20.50;99.90
11764;DHT22;5939;56.522;14.950;2023-07-13T15:44:27;20.50;99.90
11764;DHT22;5939;56.522;14.950;2023-07-13T15:46:54;20.50;99.90
11764;DHT22;5939;56.522;14.950;2023-07-13T15:49:20;20.50;99.90
11764;DHT22;5939;56.522;14.950;2023-07-13T15:51:46;20.50;99.90
11764;DHT22;5939;56.522;14.950;2023-07-13T15:54:15;20.40;99.90
11764;DHT22;5939;56.522;14.950;2023-07-13T15:56:41;20.40;99.90
11764;DHT22;5939;56.522;14.950;2023-07-13T15:59:11;20.40;99.90
11764;DHT22;5939;56.522;14.950;2023-07-13T16:01:40;20.40;99.90
11764;DHT22;5939;56.522;14.950;2023-07-13T16:04:07;20.40;99.90
11764;DHT22;5939;56.522;14.950;2023-07-13T16:06:36;20.40;99.90
11764;DHT22;5939;56.522;14.950;2023-07-13T16:09:03;20.40;99.90
11764;DHT22;5939;56.522;14.950;2023-07-13T16:11:36;20.30;99.90
11764;DHT22;5939;56.522;14.950;2023-07-13T16:14:03;20.30;99.90
11764;DHT22;5939;56.522;14.950;2023-07-13T16:16:31;20.30;99.90